Time;durP1;ratioP1;P1;durP2;ratioP2;P2;SDS_P1;SDS_P2;PMS_P1;PMS_P2;Temp;Humidity;BMP_temperature;BMP_pressure;BME280_temperature;BME280_humidity;BME280_pressure;Samples;Min_cycle;Max_cycle;Signal;HPM_P1;HPM_P2
2022/07/04 00:01:33;;;;;;;0.10;0.10;;;;;;;14.02;100.00;101777.66;10398558;28;20268;-73
2022/07/04 00:06:34;;;;;;;0.10;0.10;;;;;;;13.98;100.00;101774.47;10386304;28;20025;-73
2022/07/04 00:11:34;;;;;;;0.10;0.10;;;;;;;13.94;100.00;101767.78;10392622;28;20462;-73
2022/07/04 00:16:34;;;;;;;0.10;0.10;;;;;;;13.93;100.00;101766.09;10395024;28;20021;-73
2022/07/04 00:21:35;;;;;;;0.10;0.10;;;;;;;13.90;100.00;101762.88;10395262;28;20017;-73
2022/07/04 00:26:35;;;;;;;0.10;0.10;;;;;;;13.85;100.00;101749.97;10396895;28;20044;-73
2022/07/04 00:31:35;;;;;;;0.00;0.00;;;;;;;13.82;100.00;101745.78;10402451;28;20030;-74
2022/07/04 00:36:36;;;;;;;0.10;0.10;;;;;;;13.77;100.00;101736.53;10392019;28;20022;-74
2022/07/04 00:41:36;;;;;;;0.10;0.10;;;;;;;13.73;100.00;101735.16;10388768;28;20033;-74
2022/07/04 00:46:37;;;;;;;0.20;0.20;;;;;;;13.66;100.00;101744.81;10401035;28;20055;-74
2022/07/04 00:51:39;;;;;;;0.10;0.10;;;;;;;13.63;100.00;101745.13;10391171;28;20061;-74
2022/07/04 00:56:41;;;;;;;0.10;0.10;;;;;;;13.61;100.00;101753.31;10395353;28;20029;-74
2022/07/04 01:01:41;;;;;;;0.00;0.00;;;;;;;13.59;100.00;101750.81;10403463;28;20357;-74
2022/07/04 01:06:43;;;;;;;0.10;0.10;;;;;;;13.55;100.00;101760.13;10398017;28;20014;-74
2022/07/04 01:11:43;;;;;;;0.10;0.10;;;;;;;13.54;100.00;101753.09;10400322;28;20323;-74
2022/07/04 01:16:43;;;;;;;0.10;0.10;;;;;;;13.54;100.00;101752.28;10393919;28;20069;-74
2022/07/04 01:21:44;;;;;;;0.10;0.10;;;;;;;13.54;100.00;101757.63;10400927;28;20376;-74
2022/07/04 01:26:44;;;;;;;0.10;0.10;;;;;;;13.52;100.00;101763.13;10388924;28;20068;-74
2022/07/04 01:31:45;;;;;;;0.10;0.10;;;;;;;13.50;100.00;101759.78;10399939;22;20050;-74
2022/07/04 01:36:45;;;;;;;0.10;0.10;;;;;;;13.46;100.00;101766.41;10371666;28;20033;-74
2022/07/04 01:41:45;;;;;;;0.10;0.10;;;;;;;13.41;100.00;101768.75;10354582;28;20080;-74
2022/07/04 01:46:45;;;;;;;0.10;0.10;;;;;;;13.35;100.00;101764.84;10392014;28;20034;-74
2022/07/04 01:51:50;;;;;;;0.10;0.10;;;;;;;13.32;100.00;101766.97;10412550;28;20032;-74
2022/07/04 01:56:50;;;;;;;;;;;;;;;13.28;100.00;101773.63;10405563;28;20026;-75
2022/07/04 02:01:50;;;;;;;0.10;0.10;;;;;;;13.24;100.00;101772.25;10372657;28;20057;-75
2022/07/04 02:06:50;;;;;;;0.10;0.10;;;;;;;13.20;100.00;101769.00;10375350;28;20030;-75
2022/07/04 02:17:11;;;;;;;0.10;0.10;;;;;;;13.14;100.00;101783.81;10399696;28;20034;-74
2022/07/04 02:22:11;;;;;;;0.10;0.10;;;;;;;13.12;100.00;101769.78;10380864;28;20033;-75
2022/07/04 02:27:12;;;;;;;0.10;0.10;;;;;;;13.10;100.00;101779.78;10385313;28;20018;-74
2022/07/04 02:32:12;;;;;;;0.10;0.10;;;;;;;13.06;100.00;101774.88;10390858;28;20017;-74
2022/07/04 02:37:13;;;;;;;0.10;0.10;;;;;;;13.07;100.00;101780.09;10389191;28;20029;-74
2022/07/04 02:42:13;;;;;;;0.10;0.10;;;;;;;13.05;100.00;101770.53;10379485;28;20009;-75
2022/07/04 02:47:15;;;;;;;0.20;0.20;;;;;;;13.04;100.00;101784.91;10394163;28;20029;-74
2022/07/04 02:52:15;;;;;;;0.00;0.00;;;;;;;13.00;100.00;101780.84;10390147;28;20029;-75
2022/07/04 02:57:16;;;;;;;0.10;0.10;;;;;;;12.95;100.00;101777.81;10396073;28;20036;-74
2022/07/04 03:02:16;;;;;;;0.00;0.00;;;;;;;12.94;100.00;101782.28;10394541;28;20109;-75
2022/07/04 03:07:16;;;;;;;0.10;0.10;;;;;;;12.98;100.00;101788.19;10382706;28;20264;-75
2022/07/04 03:12:17;;;;;;;0.10;0.10;;;;;;;13.05;100.00;101787.44;10370650;28;20028;-74
2022/07/04 03:17:17;;;;;;;0.00;0.00;;;;;;;13.35;100.00;101788.06;10393286;28;20018;-73
2022/07/04 03:22:17;;;;;;;0.00;0.00;;;;;;;13.86;100.00;101789.13;10383074;28;20033;-74
2022/07/04 03:27:18;;;;;;;0.00;0.00;;;;;;;14.46;100.00;101799.88;10390545;28;20373;-74
2022/07/04 03:32:18;;;;;;;0.10;0.10;;;;;;;15.16;100.00;101815.69;10393223;28;20032;-74
2022/07/04 03:37:18;;;;;;;0.10;0.10;;;;;;;15.99;100.00;101809.31;10390072;28;20041;-74
2022/07/04 03:42:19;;;;;;;0.10;0.10;;;;;;;16.88;100.00;101815.44;10388006;28;20068;-75
2022/07/04 03:47:19;;;;;;;0.10;0.10;;;;;;;17.76;100.00;101810.59;10390180;28;20049;-74
2022/07/04 03:52:19;;;;;;;0.10;0.10;;;;;;;18.80;100.00;101819.59;10392649;28;20017;-75
2022/07/04 03:57:20;;;;;;;0.10;0.10;;;;;;;19.73;100.00;101825.97;10383743;28;20116;-74
2022/07/04 04:02:20;;;;;;;0.10;0.10;;;;;;;20.56;100.00;101831.50;10360141;28;20404;-75
2022/07/04 04:07:21;;;;;;;0.10;0.10;;;;;;;20.60;100.00;101826.56;10368511;28;20041;-74
2022/07/04 04:12:21;;;;;;;0.00;0.00;;;;;;;21.11;100.00;101826.91;10389638;28;20021;-75
2022/07/04 04:17:21;;;;;;;0.00;0.00;;;;;;;21.96;96.53;101827.19;10390167;28;20033;-75
2022/07/04 04:22:22;;;;;;;0.00;0.00;;;;;;;22.56;89.31;101822.50;10387277;28;20465;-75
2022/07/04 04:27:22;;;;;;;0.00;0.00;;;;;;;23.21;83.65;101832.44;10395289;28;20022;-75
2022/07/04 04:32:22;;;;;;;0.00;0.00;;;;;;;23.72;81.05;101829.59;10385331;28;20034;-75
2022/07/04 04:37:22;;;;;;;0.10;0.10;;;;;;;24.50;79.15;101844.56;10380756;28;20030;-75
2022/07/04 04:42:23;;;;;;;0.10;0.10;;;;;;;25.11;76.00;101848.19;10400154;28;20018;-72
2022/07/04 04:47:23;;;;;;;0.00;0.00;;;;;;;25.48;70.97;101862.56;10383651;28;20029;-75
2022/07/04 04:52:24;;;;;;;0.10;0.10;;;;;;;25.57;69.74;101871.22;10388052;28;20444;-75
2022/07/04 04:57:24;;;;;;;0.10;0.10;;;;;;;25.81;69.63;101872.09;10389682;28;20053;-75
2022/07/04 05:02:24;;;;;;;0.10;0.10;;;;;;;26.22;68.68;101878.53;10383280;28;20031;-75
2022/07/04 05:07:25;;;;;;;0.10;0.10;;;;;;;26.49;67.32;101876.13;10395516;28;20018;-75
2022/07/04 05:12:26;;;;;;;0.10;0.10;;;;;;;26.79;66.21;101875.13;10387651;28;20028;-75
2022/07/04 05:17:26;;;;;;;0.03;0.03;;;;;;;27.18;64.31;101875.41;10385587;28;20271;-75
2022/07/04 05:22:27;;;;;;;0.10;0.10;;;;;;;27.51;61.83;101878.19;10389687;28;20030;-74
2022/07/04 05:27:27;;;;;;;0.10;0.10;;;;;;;27.79;62.99;101883.88;10400738;28;20083;-75
2022/07/04 05:32:27;;;;;;;0.10;0.10;;;;;;;28.08;62.01;101879.97;10389527;28;20108;-74
2022/07/04 05:37:28;;;;;;;0.10;0.10;;;;;;;28.05;58.34;101883.19;10366458;28;20033;-74
2022/07/04 05:42:28;;;;;;;0.10;0.10;;;;;;;28.31;56.87;101878.94;10373886;28;20022;-75
2022/07/04 05:47:29;;;;;;;0.10;0.10;;;;;;;28.39;56.11;101873.03;10394263;28;20013;-75
2022/07/04 05:52:29;;;;;;;0.10;0.10;;;;;;;28.54;55.46;101871.59;10376286;28;20014;-75
2022/07/04 05:57:29;;;;;;;0.10;0.10;;;;;;;28.84;55.12;101868.41;10374879;28;20034;-75
2022/07/04 06:02:30;;;;;;;0.10;0.10;;;;;;;29.16;52.57;101873.97;10381247;28;20025;-75
2022/07/04 06:07:30;;;;;;;0.10;0.10;;;;;;;29.29;53.15;101867.25;10378270;28;20013;-75
2022/07/04 06:12:30;;;;;;;0.10;0.10;;;;;;;29.59;50.56;101869.44;10360739;28;20025;-75
2022/07/04 06:17:31;;;;;;;0.10;0.10;;;;;;;29.80;50.44;101875.13;10374459;28;20026;-75
2022/07/04 06:22:48;;;;;;;0.10;0.10;;;;;;;29.61;51.44;101880.97;10354862;28;20026;-76
2022/07/04 06:27:51;;;;;;;0.10;0.10;;;;;;;29.73;50.77;101886.31;10386577;28;20034;-73
2022/07/04 06:32:55;;;;;;;0.10;0.10;;;;;;;29.50;50.55;101884.75;10386099;28;20032;-75
2022/07/04 06:37:56;;;;;;;0.10;0.10;;;;;;;29.45;49.10;101877.28;10410060;28;20029;-75
2022/07/04 06:42:56;;;;;;;0.10;0.10;;;;;;;29.56;50.42;101878.22;10375144;28;20056;-74
2022/07/04 06:47:57;;;;;;;0.10;0.10;;;;;;;29.86;50.14;101880.41;10384620;28;20021;-76
2022/07/04 06:53:03;;;;;;;0.10;0.10;;;;;;;29.61;50.18;101880.16;10409313;28;20060;-76
2022/07/04 06:58:04;;;;;;;0.10;0.10;;;;;;;28.84;50.08;101882.91;10363292;28;20506;-76
2022/07/04 07:03:05;;;;;;;0.10;0.10;;;;;;;28.57;50.91;101879.31;10362651;28;20049;-76
2022/07/04 07:08:05;;;;;;;0.10;0.10;;;;;;;28.40;50.88;101866.44;10348090;28;20026;-75
2022/07/04 07:13:05;;;;;;;0.10;0.10;;;;;;;28.63;51.86;101868.16;10362042;28;20743;-76
2022/07/04 07:18:06;;;;;;;0.10;0.10;;;;;;;28.55;51.10;101863.09;10366343;28;20037;-76
2022/07/04 07:23:06;;;;;;;0.10;0.10;;;;;;;28.86;51.17;101868.97;10338931;28;20025;-74
2022/07/04 07:28:06;;;;;;;;;;;;;;;28.78;51.64;101866.69;10362928;28;20022;-76
2022/07/04 07:33:07;;;;;;;0.10;0.10;;;;;;;27.98;51.20;101869.69;10449962;23;19946;-76
2022/07/04 07:38:07;;;;;;;0.20;0.20;;;;;;;27.90;52.68;101866.56;10472196;28;20020;-76
2022/07/04 07:43:08;;;;;;;0.10;0.10;;;;;;;27.48;52.63;101877.84;10447935;28;20100;-76
2022/07/04 07:48:08;;;;;;;0.10;0.10;;;;;;;27.05;51.01;101860.06;10445688;28;20025;-75
2022/07/04 07:53:08;;;;;;;0.10;0.10;;;;;;;26.27;52.16;101875.94;10466328;28;20043;-76
2022/07/04 07:58:09;;;;;;;0.10;0.10;;;;;;;26.36;53.97;101869.03;10459010;28;20021;-76
2022/07/04 08:08:28;;;;;;;0.10;0.10;;;;;;;27.70;54.43;101875.22;10463305;28;20033;-74
2022/07/04 08:13:29;;;;;;;0.10;0.10;;;;;;;27.90;50.09;101872.03;10468835;28;20028;-75
2022/07/04 08:18:29;;;;;;;0.00;0.00;;;;;;;27.93;51.98;101872.34;10461410;28;20029;-76
2022/07/04 08:23:32;;;;;;;0.10;0.10;;;;;;;27.33;52.46;101870.22;10456647;28;20792;-75
2022/07/04 08:28:32;;;;;;;0.10;0.10;;;;;;;27.14;52.32;101876.91;10473997;28;20154;-75
2022/07/04 08:33:32;;;;;;;0.00;0.00;;;;;;;27.60;54.33;101883.25;10468604;28;20124;-75
2022/07/04 08:38:33;;;;;;;0.00;0.00;;;;;;;26.67;52.71;101877.09;10480588;28;20013;-76
2022/07/04 08:43:35;;;;;;;0.10;0.10;;;;;;;26.36;54.04;101885.44;10477878;28;20118;-75
2022/07/04 08:48:38;;;;;;;0.00;0.00;;;;;;;25.78;57.86;101874.47;10471035;28;20408;-75
2022/07/04 08:53:42;;;;;;;0.10;0.10;;;;;;;26.52;54.38;101870.22;10478065;28;20025;-75
2022/07/04 08:58:42;;;;;;;0.10;0.10;;;;;;;26.47;57.21;101867.38;10473986;28;20424;-75
2022/07/04 09:03:45;;;;;;;0.10;0.10;;;;;;;25.96;54.46;101874.38;10469281;28;20032;-75
2022/07/04 09:08:45;;;;;;;0.10;0.10;;;;;;;25.67;57.33;101865.19;10460020;28;20021;-75
2022/07/04 09:13:46;;;;;;;0.10;0.10;;;;;;;26.52;57.07;101864.75;10474514;28;20020;-75
2022/07/04 09:18:47;;;;;;;0.00;0.00;;;;;;;26.86;55.05;101863.00;10494476;28;20065;-75
2022/07/04 09:23:47;;;;;;;0.10;0.10;;;;;;;27.03;55.28;101859.50;10467938;28;20070;-75
2022/07/04 09:28:53;;;;;;;0.10;0.10;;;;;;;27.29;53.52;101866.31;10471387;28;20791;-75
2022/07/04 09:33:57;;;;;;;0.10;0.10;;;;;;;27.29;50.38;101867.13;10470206;28;20056;-74
2022/07/04 09:39:09;;;;;;;0.10;0.10;;;;;;;27.40;51.20;101859.09;10489660;28;20297;-75
2022/07/04 09:44:10;;;;;;;;;;;;;;;26.82;51.07;101855.53;10481249;28;20033;-75
2022/07/04 09:49:11;;;;;;;0.00;0.00;;;;;;;26.00;52.72;101852.91;10484043;28;19958;-74
2022/07/04 09:54:27;;;;;;;0.00;0.00;;;;;;;25.66;56.57;101855.34;10451909;28;20067;-75
2022/07/04 09:59:28;;;;;;;0.00;0.00;;;;;;;25.81;58.09;101852.16;10472099;28;20094;-75
2022/07/04 10:04:49;;;;;;;0.10;0.10;;;;;;;26.25;56.40;101852.66;10461121;28;20032;-74
2022/07/04 10:09:49;;;;;;;0.10;0.10;;;;;;;25.65;54.29;101851.78;10492347;28;20024;-73
2022/07/04 10:14:50;;;;;;;0.08;0.08;;;;;;;26.15;59.36;101851.38;10490641;28;20495;-73
2022/07/04 10:19:52;;;;;;;0.10;0.10;;;;;;;27.01;55.81;101856.19;10486236;28;20024;-74
2022/07/04 10:24:53;;;;;;;0.00;0.00;;;;;;;27.05;54.36;101844.53;10459685;28;20206;-75
2022/07/04 10:29:54;;;;;;;0.00;0.00;;;;;;;26.37;53.21;101837.91;10451307;28;20115;-75
2022/07/04 10:34:54;;;;;;;0.00;0.00;;;;;;;25.03;54.55;101841.16;10452617;28;20029;-75
2022/07/04 10:39:54;;;;;;;0.10;0.10;;;;;;;24.35;59.29;101857.69;10464640;28;20013;-75
2022/07/04 10:45:00;;;;;;;0.00;0.00;;;;;;;24.44;59.79;101844.66;10492276;28;20020;-75
2022/07/04 10:50:00;;;;;;;0.10;0.10;;;;;;;24.44;58.74;101839.19;10481109;28;20020;-75
2022/07/04 10:55:10;;;;;;;0.10;0.10;;;;;;;24.00;59.53;101832.91;10453326;28;20017;-74
2022/07/04 11:00:12;;;;;;;0.10;0.10;;;;;;;23.80;59.42;101844.81;10467250;28;20048;-75
2022/07/04 11:05:14;;;;;;;0.10;0.10;;;;;;;23.44;61.63;101842.75;10470685;28;20032;-75
2022/07/04 11:10:21;;;;;;;0.00;0.00;;;;;;;23.41;63.38;101844.03;10491395;28;20035;-75
2022/07/04 11:15:28;;;;;;;0.00;0.00;;;;;;;23.52;60.87;101839.78;10461314;28;20125;-75
2022/07/04 11:20:31;;;;;;;0.10;0.10;;;;;;;23.66;63.21;101841.34;10449491;28;20021;-75
2022/07/04 11:25:31;;;;;;;0.08;0.08;;;;;;;23.92;61.09;101828.59;10449287;28;20025;-74
2022/07/04 11:30:32;;;;;;;0.00;0.00;;;;;;;24.70;63.91;101827.16;10451536;28;20029;-74
2022/07/04 11:35:32;;;;;;;0.00;0.00;;;;;;;25.34;62.28;101811.16;10449080;28;20021;-74
2022/07/04 11:46:11;;;;;;;0.00;0.00;;;;;;;25.92;57.77;101804.97;10469488;28;20029;-72
2022/07/04 11:51:18;;;;;;;0.00;0.00;;;;;;;26.35;56.71;101800.97;10476035;28;20032;-74
2022/07/04 11:56:18;;;;;;;0.10;0.10;;;;;;;26.78;57.00;101789.59;10486736;28;20036;-74
2022/07/04 12:01:28;;;;;;;0.00;0.00;;;;;;;26.80;54.35;101781.16;10458056;28;20025;-75
2022/07/04 12:06:28;;;;;;;0.00;0.00;;;;;;;26.66;51.79;101782.53;10457298;28;20475;-75
2022/07/04 12:11:58;;;;;;;0.10;0.10;;;;;;;26.44;50.62;101780.41;10485077;28;20028;-74
2022/07/04 12:17:18;;;;;;;0.10;0.10;;;;;;;25.86;54.79;101770.41;10452600;28;20024;-75
2022/07/04 12:22:26;;;;;;;0.00;0.00;;;;;;;25.44;55.74;101768.59;10489681;28;20024;-75
2022/07/04 12:27:27;;;;;;;0.00;0.00;;;;;;;24.91;55.87;101763.97;10496554;28;20029;-75
2022/07/04 12:32:45;;;;;;;0.00;0.00;;;;;;;24.67;58.56;101760.34;10499043;28;20419;-74
2022/07/04 12:38:00;;;;;;;0.00;0.00;;;;;;;24.47;59.07;101763.31;10495649;28;20031;-74
2022/07/04 12:43:01;;;;;;;0.00;0.00;;;;;;;24.10;57.03;101762.47;10468747;28;20123;-75
2022/07/04 12:48:01;;;;;;;0.10;0.10;;;;;;;23.73;61.26;101768.69;10496466;28;20028;-76
2022/07/04 12:53:02;;;;;;;0.00;0.00;;;;;;;23.79;61.68;101760.69;10497507;28;20451;-75
2022/07/04 12:58:03;;;;;;;0.10;0.10;;;;;;;24.35;64.06;101767.84;10497541;28;20487;-75
2022/07/04 13:03:04;;;;;;;0.10;0.10;;;;;;;24.92;60.69;101768.34;10496990;28;20045;-76
2022/07/04 13:08:06;;;;;;;0.10;0.10;;;;;;;24.31;61.65;101770.16;10497995;28;20443;-75
2022/07/04 13:13:06;;;;;;;0.00;0.00;;;;;;;24.21;66.01;101760.88;10496165;28;20371;-74
2022/07/04 13:18:06;;;;;;;0.00;0.00;;;;;;;24.67;62.48;101768.50;10496417;28;20032;-74
2022/07/04 13:23:07;;;;;;;0.00;0.00;;;;;;;25.04;60.51;101780.09;10496359;28;20101;-74
2022/07/04 13:28:07;;;;;;;0.00;0.00;;;;;;;24.86;57.58;101777.44;10496538;28;20056;-74
2022/07/04 13:33:07;;;;;;;0.10;0.10;;;;;;;24.26;61.19;101778.22;10486768;22;20040;-71
2022/07/04 13:38:08;;;;;;;0.10;0.10;;;;;;;23.62;60.66;101787.59;10443831;28;20025;-71
2022/07/04 13:43:11;;;;;;;0.00;0.00;;;;;;;23.22;64.64;101783.31;10432367;28;20025;-71
2022/07/04 13:48:11;;;;;;;0.00;0.00;;;;;;;23.27;62.47;101780.78;10430410;28;20024;-71
2022/07/04 13:53:12;;;;;;;0.00;0.00;;;;;;;23.49;62.27;101783.09;10426943;28;20029;-71
2022/07/04 13:58:12;;;;;;;0.10;0.10;;;;;;;23.55;60.69;101781.41;10436057;28;20014;-71
2022/07/04 14:03:13;;;;;;;0.10;0.10;;;;;;;23.82;60.92;101782.00;10435525;28;20052;-71
2022/07/04 14:08:13;;;;;;;0.10;0.10;;;;;;;23.72;60.62;101775.19;10439441;28;20106;-71
2022/07/04 14:13:14;;;;;;;0.10;0.10;;;;;;;23.46;59.88;101778.94;10430485;28;20362;-71
2022/07/04 14:18:14;;;;;;;0.00;0.00;;;;;;;23.76;62.54;101778.28;10430104;28;20026;-71
2022/07/04 14:23:39;;;;;;;0.00;0.00;;;;;;;24.23;62.10;101769.63;10429258;28;20020;-70
2022/07/04 14:28:36;;;;;;;0.00;0.00;;;;;;;24.43;60.77;101766.72;10433357;28;20104;-71
2022/07/04 14:33:36;;;;;;;0.00;0.00;;;;;;;24.24;58.39;101769.44;10430836;28;20025;-71
2022/07/04 14:38:38;;;;;;;0.00;0.00;;;;;;;24.22;56.68;101779.69;10432810;28;20025;-72
2022/07/04 14:43:40;;;;;;;0.00;0.00;;;;;;;23.15;66.74;101784.41;10431467;28;20357;-71
2022/07/04 14:48:40;;;;;;;0.00;0.00;;;;;;;22.24;69.08;101785.47;10440832;28;20035;-71
2022/07/04 14:53:41;;;;;;;0.00;0.00;;;;;;;21.80;72.19;101778.84;10430427;28;20263;-70
2022/07/04 14:58:41;;;;;;;0.00;0.00;;;;;;;22.03;74.33;101778.38;10426696;28;20021;-71
2022/07/04 15:03:41;;;;;;;0.00;0.00;;;;;;;22.41;74.48;101775.78;10423652;28;20014;-71
2022/07/04 15:08:42;;;;;;;0.00;0.00;;;;;;;22.36;70.89;101770.16;10426076;28;20028;-71
2022/07/04 15:13:42;;;;;;;0.00;0.00;;;;;;;21.94;73.14;101775.06;10428436;28;20412;-71
2022/07/04 15:18:42;;;;;;;0.10;0.10;;;;;;;22.03;72.75;101781.09;10422784;28;20063;-71
2022/07/04 15:29:03;;;;;;;0.10;0.10;;;;;;;21.32;72.85;101781.72;10438038;28;20025;-71
2022/07/04 15:34:03;;;;;;;0.03;0.03;;;;;;;21.32;73.44;101781.72;10433414;28;20024;-72
2022/07/04 15:39:15;;;;;;;0.00;0.00;;;;;;;21.05;73.43;101797.13;10432322;28;20014;-71
2022/07/04 15:44:16;;;;;;;0.00;0.00;;;;;;;20.64;76.56;101798.84;10438393;28;20021;-71
2022/07/04 15:49:17;;;;;;;0.00;0.00;;;;;;;20.97;77.36;101790.00;10432023;28;20509;-71
2022/07/04 15:54:17;;;;;;;0.10;0.10;;;;;;;21.28;74.53;101804.88;10426809;28;20028;-71
2022/07/04 15:59:17;;;;;;;0.00;0.00;;;;;;;21.35;73.38;101798.44;10437896;28;20518;-71
2022/07/04 16:04:18;;;;;;;0.10;0.10;;;;;;;21.31;76.83;101812.59;10432206;28;20126;-71
2022/07/04 16:09:18;;;;;;;0.10;0.10;;;;;;;20.69;75.55;101812.63;10430893;28;20044;-71
2022/07/04 16:14:19;;;;;;;0.00;0.00;;;;;;;20.39;76.59;101803.94;10430294;28;20388;-71
2022/07/04 16:19:19;;;;;;;0.00;0.00;;;;;;;20.29;74.00;101808.88;10438665;28;20025;-71
2022/07/04 16:24:19;;;;;;;0.10;0.10;;;;;;;20.72;76.21;101819.50;10427216;28;20434;-70
2022/07/04 16:29:20;;;;;;;0.10;0.10;;;;;;;20.67;74.46;101808.44;10418912;28;20215;-69
2022/07/04 16:34:20;;;;;;;0.00;0.00;;;;;;;20.29;73.67;101817.81;10441456;28;20040;-70
2022/07/04 16:39:23;;;;;;;0.10;0.10;;;;;;;19.93;76.07;101823.41;10449420;28;20029;-70
2022/07/04 16:44:23;;;;;;;0.13;0.13;;;;;;;19.67;77.09;101821.34;10450391;28;20540;-69
2022/07/04 16:49:24;;;;;;;0.10;0.10;;;;;;;19.47;78.08;101823.00;10449196;28;20017;-70
2022/07/04 16:54:24;;;;;;;0.10;0.10;;;;;;;19.51;79.07;101826.97;10448543;28;20029;-69
2022/07/04 16:59:25;;;;;;;0.00;0.00;;;;;;;19.78;79.81;101831.63;10448101;28;20028;-70
2022/07/04 17:04:25;;;;;;;0.10;0.10;;;;;;;19.85;77.20;101837.91;10441127;28;20080;-70
2022/07/04 17:09:25;;;;;;;0.00;0.00;;;;;;;19.52;80.00;101839.44;10457848;28;20100;-70
2022/07/04 17:14:26;;;;;;;0.10;0.10;;;;;;;19.25;80.43;101838.34;10456971;28;20519;-70
2022/07/04 17:19:26;;;;;;;0.10;0.10;;;;;;;19.06;80.60;101829.84;10457011;28;20025;-70
2022/07/04 17:24:27;;;;;;;0.10;0.10;;;;;;;18.72;80.61;101842.06;10456278;28;20037;-70
2022/07/04 17:29:27;;;;;;;0.00;0.00;;;;;;;18.68;82.36;101845.34;10455352;28;20657;-71
2022/07/04 17:34:28;;;;;;;0.10;0.10;;;;;;;18.52;81.72;101843.69;10441607;28;20033;-70
2022/07/04 17:39:28;;;;;;;0.10;0.10;;;;;;;18.44;82.70;101836.53;10456405;28;20025;-72
2022/07/04 17:44:28;;;;;;;0.10;0.10;;;;;;;18.51;81.54;101832.06;10455324;28;20054;-72
2022/07/04 17:49:29;;;;;;;0.10;0.10;;;;;;;18.61;81.20;101847.13;10455559;28;20463;-70
2022/07/04 17:54:29;;;;;;;0.10;0.10;;;;;;;18.56;80.55;101855.78;10455323;28;20487;-70
2022/07/04 17:59:30;;;;;;;0.10;0.10;;;;;;;18.45;80.58;101848.16;10453961;28;20450;-71
2022/07/04 18:04:30;;;;;;;0.10;0.10;;;;;;;18.50;81.43;101843.88;10429925;28;20025;-71
2022/07/04 18:09:31;;;;;;;0.10;0.10;;;;;;;18.61;79.97;101844.41;10413840;28;20693;-70
2022/07/04 18:14:31;;;;;;;0.10;0.10;;;;;;;18.48;78.06;101845.91;10411097;28;20026;-71
2022/07/04 18:19:31;;;;;;;0.10;0.10;;;;;;;18.42;78.92;101853.94;10413708;28;20032;-71
2022/07/04 18:24:32;;;;;;;0.00;0.00;;;;;;;18.22;80.29;101854.47;10412781;28;20408;-71
2022/07/04 18:29:32;;;;;;;0.00;0.00;;;;;;;18.18;80.23;101855.00;10412998;28;20017;-71
2022/07/04 18:34:33;;;;;;;0.10;0.10;;;;;;;18.10;81.64;101851.38;10410429;28;20040;-71
2022/07/04 18:39:33;;;;;;;0.00;0.00;;;;;;;18.01;82.62;101857.06;10410858;28;20492;-71
2022/07/04 18:44:34;;;;;;;0.10;0.10;;;;;;;17.96;80.71;101860.28;10410109;28;20497;-71
2022/07/04 18:49:37;;;;;;;0.00;0.00;;;;;;;17.90;81.50;101861.03;10410163;28;20373;-71
2022/07/04 18:54:37;;;;;;;0.10;0.10;;;;;;;17.87;79.09;101869.47;10409976;28;20026;-71
2022/07/04 18:59:39;;;;;;;0.10;0.10;;;;;;;17.84;80.25;101862.59;10408453;28;20022;-71
2022/07/04 19:04:39;;;;;;;0.10;0.10;;;;;;;17.69;81.48;101872.47;10445186;28;20023;-71
2022/07/04 19:09:39;;;;;;;0.10;0.10;;;;;;;17.49;81.83;101873.97;10451085;28;20013;-71
2022/07/04 19:14:39;;;;;;;0.10;0.10;;;;;;;17.27;82.18;101871.06;10450268;28;20359;-71
2022/07/04 19:19:40;;;;;;;0.10;0.10;;;;;;;17.08;83.85;101877.75;10451414;28;20544;-71
2022/07/04 19:24:40;;;;;;;0.10;0.10;;;;;;;16.93;84.90;101884.88;10450054;28;20546;-71
2022/07/04 19:29:42;;;;;;;0.10;0.10;;;;;;;16.79;84.66;101889.13;10447031;28;20276;-71
2022/07/04 19:34:42;;;;;;;0.10;0.10;;;;;;;16.64;85.75;101891.69;10414485;22;1102272;-77
2022/07/04 19:39:43;;;;;;;0.10;0.10;;;;;;;16.45;87.90;101892.91;10430609;28;20017;-76
2022/07/04 19:44:47;;;;;;;0.10;0.10;;;;;;;16.26;87.80;101888.75;10448573;28;20398;-76
2022/07/04 19:49:48;;;;;;;0.10;0.10;;;;;;;16.11;86.95;101890.44;10430302;28;20020;-76
2022/07/04 19:54:49;;;;;;;0.10;0.10;;;;;;;15.97;87.61;101893.81;10447964;28;20041;-73
2022/07/04 19:59:49;;;;;;;0.10;0.10;;;;;;;15.84;88.77;101905.91;10443619;28;20056;-73
2022/07/04 20:04:51;;;;;;;0.10;0.10;;;;;;;15.69;90.41;101902.19;10443784;28;20052;-72
2022/07/04 20:09:51;;;;;;;0.10;0.10;;;;;;;15.57;90.68;101903.50;10447586;28;20028;-73
2022/07/04 20:14:51;;;;;;;0.10;0.10;;;;;;;15.44;91.27;101901.28;10447279;28;20025;-73
2022/07/04 20:19:52;;;;;;;0.10;0.10;;;;;;;15.32;92.69;101902.59;10429426;28;20025;-73
2022/07/04 20:24:55;;;;;;;0.00;0.00;;;;;;;15.24;93.80;101914.19;10446574;28;20086;-73
2022/07/04 20:29:57;;;;;;;0.10;0.10;;;;;;;15.17;94.93;101915.81;10442490;28;20092;-73
2022/07/04 20:35:09;;;;;;;0.10;0.10;;;;;;;15.09;96.65;101913.94;10444583;28;20087;-73
2022/07/04 20:40:11;;;;;;;0.10;0.10;;;;;;;15.03;97.41;101911.91;10455334;28;20360;-73
2022/07/04 20:45:12;;;;;;;0.10;0.10;;;;;;;14.96;98.21;101915.41;10454328;28;20104;-73
2022/07/04 20:50:12;;;;;;;0.10;0.10;;;;;;;14.88;98.97;101917.06;10454499;28;20108;-73
2022/07/04 20:55:13;;;;;;;0.10;0.10;;;;;;;14.83;100.00;101919.38;10453559;28;20047;-73
2022/07/04 21:00:14;;;;;;;0.10;0.10;;;;;;;14.79;100.00;101909.13;10448059;28;20432;-73
2022/07/04 21:05:15;;;;;;;0.00;0.00;;;;;;;14.74;100.00;101919.50;10494744;28;20458;-73
2022/07/04 21:10:16;;;;;;;0.10;0.10;;;;;;;14.69;100.00;101917.31;10495246;28;20025;-73
2022/07/04 21:15:17;;;;;;;0.10;0.10;;;;;;;14.66;100.00;101909.56;10494282;28;20024;-73
2022/07/04 21:20:17;;;;;;;0.10;0.10;;;;;;;14.64;100.00;101924.97;10494774;28;20020;-73
2022/07/04 21:25:18;;;;;;;0.10;0.10;;;;;;;14.58;100.00;101922.94;10494228;28;20049;-73
2022/07/04 21:30:18;;;;;;;0.10;0.10;;;;;;;14.55;100.00;101933.97;10479354;28;20028;-73
2022/07/04 21:35:18;;;;;;;0.10;0.10;;;;;;;14.49;100.00;101935.44;10452040;28;20031;-73
2022/07/04 21:40:19;;;;;;;0.10;0.10;;;;;;;14.44;100.00;101937.72;10452738;28;20136;-73
2022/07/04 21:45:19;;;;;;;0.10;0.10;;;;;;;14.37;100.00;101937.53;10452073;28;20035;-73
2022/07/04 21:50:20;;;;;;;0.10;0.10;;;;;;;14.34;100.00;101937.84;10450736;28;20357;-72
2022/07/04 21:55:20;;;;;;;0.10;0.10;;;;;;;14.30;100.00;101938.28;10451303;28;20270;-72
2022/07/04 22:00:21;;;;;;;0.10;0.10;;;;;;;14.25;100.00;101939.63;10445187;28;20427;-73
2022/07/04 22:05:21;;;;;;;0.10;0.10;;;;;;;14.18;100.00;101943.91;10440963;28;20388;-73
2022/07/04 22:10:22;;;;;;;0.10;0.10;;;;;;;14.03;100.00;101935.59;10451496;28;20021;-73
2022/07/04 22:15:22;;;;;;;0.10;0.10;;;;;;;13.92;100.00;101943.00;10450870;28;20100;-73
2022/07/04 22:20:24;;;;;;;0.10;0.10;;;;;;;13.74;100.00;101943.03;10450918;28;20099;-73
2022/07/04 22:25:24;;;;;;;0.00;0.00;;;;;;;13.58;100.00;101944.56;10450195;28;20435;-73
2022/07/04 22:30:25;;;;;;;0.10;0.10;;;;;;;13.44;100.00;101938.84;10446046;28;20031;-73
2022/07/04 22:35:25;;;;;;;0.10;0.10;;;;;;;13.36;100.00;101948.47;10482712;28;20282;-73
2022/07/04 22:40:25;;;;;;;0.10;0.10;;;;;;;13.37;100.00;101943.97;10463544;28;20105;-72
2022/07/04 22:45:26;;;;;;;0.03;0.03;;;;;;;13.53;100.00;101935.28;10449623;28;20266;-73
2022/07/04 22:50:27;;;;;;;0.10;0.10;;;;;;;13.66;100.00;101932.22;10450461;28;20507;-73
2022/07/04 22:55:28;;;;;;;0.10;0.10;;;;;;;13.76;100.00;101936.53;10448936;28;20094;-74
2022/07/04 23:00:28;;;;;;;0.10;0.10;;;;;;;13.81;100.00;101936.03;10449669;28;20017;-73
2022/07/04 23:05:29;;;;;;;0.10;0.10;;;;;;;13.85;100.00;101939.28;10449061;28;20124;-74
2022/07/04 23:10:29;;;;;;;0.10;0.10;;;;;;;13.86;100.00;101932.91;10442613;28;20036;-74
2022/07/04 23:15:30;;;;;;;0.10;0.10;;;;;;;13.86;100.00;101928.41;10447607;28;20024;-74
2022/07/04 23:20:30;;;;;;;0.10;0.10;;;;;;;13.82;100.00;101930.56;10445973;28;20100;-74